KRSN

Ruston Regional Airport

Ruston, Louisiana, USA
METAR KRSN 150055Z AUTO 00000KT 10SM CLR 28/21 A2999 RMK AO2 T02770209 TSNO
Observed Flight Rules
Aug-15 @ 00:55 UTC (11 minutes ago) Visual Flight Rules
Visibility Clouds
10 miles
  • Clear skies
Temperatures Readings
Current 28°C / 82°F
Dewpoint 21°C / 70°F
Humidity 66%
Altimeter 29.99" Hg
Pressure 1016 hPa
Elevation 95
METAR KRSN 150055Z AUTO 00000KT 10SM CLR 28/21 A2999 RMK AO2 T02770209 TSNO
Observed Flight Rules
Aug-15 @ 00:55 UTC
(11 minutes ago)
VFR
Clouds
  • Clear skies
Temperature Dewpoint
28°C / 82°F 21°C / 70°F
Humidity Altimeter Pressure
66% 29.99" Hg 1016 hPa